sensor_id;sensor_type;location;lat;lon;timestamp;temperature;humidity
42833;DHT22;64089;51.478;5.692;2022-11-12T00:00:41;5.80;99.90
42833;DHT22;64089;51.478;5.692;2022-11-12T00:03:08;5.80;99.90
42833;DHT22;64089;51.478;5.692;2022-11-12T00:05:33;5.70;99.90
42833;DHT22;64089;51.478;5.692;2022-11-12T00:07:59;5.70;99.90
42833;DHT22;64089;51.478;5.692;2022-11-12T00:10:25;5.70;99.90
42833;DHT22;64089;51.478;5.692;2022-11-12T00:12:51;5.70;99.90
42833;DHT22;64089;51.478;5.692;2022-11-12T00:15:17;5.70;99.90
42833;DHT22;64089;51.478;5.692;2022-11-12T00:17:43;5.70;99.90
42833;DHT22;64089;51.478;5.692;2022-11-12T00:20:09;5.80;99.90
42833;DHT22;64089;51.478;5.692;2022-11-12T00:22:35;5.90;99.90
42833;DHT22;64089;51.478;5.692;2022-11-12T00:25:00;6.00;99.90
42833;DHT22;64089;51.478;5.692;2022-11-12T00:27:26;6.00;99.90
42833;DHT22;64089;51.478;5.692;2022-11-12T00:29:51;6.00;99.90
42833;DHT22;64089;51.478;5.692;2022-11-12T00:32:17;6.00;99.90
42833;DHT22;64089;51.478;5.692;2022-11-12T00:34:44;5.90;99.90
42833;DHT22;64089;51.478;5.692;2022-11-12T00:37:10;5.90;99.90
42833;DHT22;64089;51.478;5.692;2022-11-12T00:39:35;5.80;99.90
42833;DHT22;64089;51.478;5.692;2022-11-12T00:42:01;5.90;99.90
42833;DHT22;64089;51.478;5.692;2022-11-12T00:44:26;5.80;99.90
42833;DHT22;64089;51.478;5.692;2022-11-12T00:46:54;5.70;99.90
42833;DHT22;64089;51.478;5.692;2022-11-12T00:49:19;5.70;99.90
42833;DHT22;64089;51.478;5.692;2022-11-12T00:51:46;5.70;99.90
42833;DHT22;64089;51.478;5.692;2022-11-12T00:54:12;5.70;99.90
42833;DHT22;64089;51.478;5.692;2022-11-12T00:56:37;5.60;99.90
42833;DHT22;64089;51.478;5.692;2022-11-12T00:59:03;5.60;99.90
42833;DHT22;64089;51.478;5.692;2022-11-12T01:01:28;5.60;99.90
42833;DHT22;64089;51.478;5.692;2022-11-12T01:03:56;5.60;99.90
42833;DHT22;64089;51.478;5.692;2022-11-12T01:06:22;5.60;99.90
42833;DHT22;64089;51.478;5.692;2022-11-12T01:08:49;5.60;99.90
42833;DHT22;64089;51.478;5.692;2022-11-12T01:11:21;5.60;99.90
42833;DHT22;64089;51.478;5.692;2022-11-12T01:13:55;5.60;99.90
42833;DHT22;64089;51.478;5.692;2022-11-12T01:16:23;5.50;99.90
42833;DHT22;64089;51.478;5.692;2022-11-12T01:18:52;5.50;99.90
42833;DHT22;64089;51.478;5.692;2022-11-12T01:21:20;5.50;99.90
42833;DHT22;64089;51.478;5.692;2022-11-12T01:23:45;5.50;99.90
42833;DHT22;64089;51.478;5.692;2022-11-12T01:26:13;5.40;99.90
42833;DHT22;64089;51.478;5.692;2022-11-12T01:28:40;5.40;99.90
42833;DHT22;64089;51.478;5.692;2022-11-12T01:31:17;5.40;99.90
42833;DHT22;64089;51.478;5.692;2022-11-12T01:33:45;5.40;99.90
42833;DHT22;64089;51.478;5.692;2022-11-12T01:36:12;5.40;99.90
42833;DHT22;64089;51.478;5.692;2022-11-12T01:38:39;5.40;99.90
42833;DHT22;64089;51.478;5.692;2022-11-12T01:41:06;5.30;99.90
42833;DHT22;64089;51.478;5.692;2022-11-12T01:43:32;5.30;99.90
42833;DHT22;64089;51.478;5.692;2022-11-12T01:45:59;5.30;99.90
42833;DHT22;64089;51.478;5.692;2022-11-12T01:48:27;5.20;99.90
42833;DHT22;64089;51.478;5.692;2022-11-12T01:50:55;5.20;99.90
42833;DHT22;64089;51.478;5.692;2022-11-12T01:53:22;5.20;99.90
42833;DHT22;64089;51.478;5.692;2022-11-12T01:55:48;5.20;99.90
42833;DHT22;64089;51.478;5.692;2022-11-12T01:58:16;5.20;99.90
42833;DHT22;64089;51.478;5.692;2022-11-12T02:00:44;5.20;99.90
42833;DHT22;64089;51.478;5.692;2022-11-12T02:03:18;5.10;99.90
42833;DHT22;64089;51.478;5.692;2022-11-12T02:05:45;5.10;99.90
42833;DHT22;64089;51.478;5.692;2022-11-12T02:08:12;5.20;99.90
42833;DHT22;64089;51.478;5.692;2022-11-12T02:10:39;5.20;99.90
42833;DHT22;64089;51.478;5.692;2022-11-12T02:13:05;5.10;99.90
42833;DHT22;64089;51.478;5.692;2022-11-12T02:15:50;5.10;99.90
42833;DHT22;64089;51.478;5.692;2022-11-12T02:18:16;5.00;99.90
42833;DHT22;64089;51.478;5.692;2022-11-12T02:20:42;5.00;99.90
42833;DHT22;64089;51.478;5.692;2022-11-12T02:23:07;5.00;99.90
42833;DHT22;64089;51.478;5.692;2022-11-12T02:25:34;4.90;99.90
42833;DHT22;64089;51.478;5.692;2022-11-12T02:28:01;4.90;99.90
42833;DHT22;64089;51.478;5.692;2022-11-12T02:30:53;4.90;99.90
42833;DHT22;64089;51.478;5.692;2022-11-12T02:33:18;4.90;99.90
42833;DHT22;64089;51.478;5.692;2022-11-12T02:35:44;4.90;99.90
42833;DHT22;64089;51.478;5.692;2022-11-12T02:38:10;5.00;99.90
42833;DHT22;64089;51.478;5.692;2022-11-12T02:40:35;4.90;99.90
42833;DHT22;64089;51.478;5.692;2022-11-12T02:43:01;4.90;99.90
42833;DHT22;64089;51.478;5.692;2022-11-12T02:45:27;4.80;99.90
42833;DHT22;64089;51.478;5.692;2022-11-12T02:47:52;4.80;99.90
42833;DHT22;64089;51.478;5.692;2022-11-12T02:50:18;4.80;99.90
42833;DHT22;64089;51.478;5.692;2022-11-12T02:52:44;4.80;99.90
42833;DHT22;64089;51.478;5.692;2022-11-12T02:55:10;4.70;99.90
42833;DHT22;64089;51.478;5.692;2022-11-12T02:57:37;4.80;99.90
42833;DHT22;64089;51.478;5.692;2022-11-12T03:00:05;4.70;99.90
42833;DHT22;64089;51.478;5.692;2022-11-12T03:02:31;4.70;99.90
42833;DHT22;64089;51.478;5.692;2022-11-12T03:04:57;4.70;99.90
42833;DHT22;64089;51.478;5.692;2022-11-12T03:07:23;4.70;99.90
42833;DHT22;64089;51.478;5.692;2022-11-12T03:09:48;4.60;99.90
42833;DHT22;64089;51.478;5.692;2022-11-12T03:12:14;4.70;99.90
42833;DHT22;64089;51.478;5.692;2022-11-12T03:14:40;4.60;99.90
42833;DHT22;64089;51.478;5.692;2022-11-12T03:17:05;4.60;99.90
42833;DHT22;64089;51.478;5.692;2022-11-12T03:19:31;4.60;99.90
42833;DHT22;64089;51.478;5.692;2022-11-12T03:21:56;4.60;99.90
42833;DHT22;64089;51.478;5.692;2022-11-12T03:24:22;4.70;99.90
42833;DHT22;64089;51.478;5.692;2022-11-12T03:26:47;4.70;99.90
42833;DHT22;64089;51.478;5.692;2022-11-12T03:29:13;4.70;99.90
42833;DHT22;64089;51.478;5.692;2022-11-12T03:31:38;4.60;99.90
42833;DHT22;64089;51.478;5.692;2022-11-12T03:34:04;4.60;99.90
42833;DHT22;64089;51.478;5.692;2022-11-12T03:36:29;4.60;99.90
42833;DHT22;64089;51.478;5.692;2022-11-12T03:38:55;4.60;99.90
42833;DHT22;64089;51.478;5.692;2022-11-12T03:41:21;4.60;99.90
42833;DHT22;64089;51.478;5.692;2022-11-12T03:43:46;4.60;99.90
42833;DHT22;64089;51.478;5.692;2022-11-12T03:46:12;4.60;99.90
42833;DHT22;64089;51.478;5.692;2022-11-12T03:48:37;4.60;99.90
42833;DHT22;64089;51.478;5.692;2022-11-12T03:51:03;4.70;99.90
42833;DHT22;64089;51.478;5.692;2022-11-12T03:53:28;4.70;99.90
42833;DHT22;64089;51.478;5.692;2022-11-12T03:55:54;4.70;99.90
42833;DHT22;64089;51.478;5.692;2022-11-12T03:58:20;4.70;99.90
42833;DHT22;64089;51.478;5.692;2022-11-12T04:00:45;4.60;99.90
42833;DHT22;64089;51.478;5.692;2022-11-12T04:03:11;4.60;99.90
42833;DHT22;64089;51.478;5.692;2022-11-12T04:05:36;4.60;99.90
42833;DHT22;64089;51.478;5.692;2022-11-12T04:08:22;4.60;99.90
42833;DHT22;64089;51.478;5.692;2022-11-12T04:11:00;4.60;99.90
42833;DHT22;64089;51.478;5.692;2022-11-12T04:13:27;4.70;99.90
42833;DHT22;64089;51.478;5.692;2022-11-12T04:15:54;4.70;99.90
42833;DHT22;64089;51.478;5.692;2022-11-12T04:18:39;4.70;99.90
42833;DHT22;64089;51.478;5.692;2022-11-12T04:21:38;4.70;99.90
42833;DHT22;64089;51.478;5.692;2022-11-12T04:24:18;4.70;99.90
42833;DHT22;64089;51.478;5.692;2022-11-12T04:27:03;4.70;99.90
42833;DHT22;64089;51.478;5.692;2022-11-12T04:29:29;4.60;99.90
42833;DHT22;64089;51.478;5.692;2022-11-12T04:32:13;4.60;99.90
42833;DHT22;64089;51.478;5.692;2022-11-12T04:34:39;4.60;99.90
42833;DHT22;64089;51.478;5.692;2022-11-12T04:37:05;4.50;99.90
42833;DHT22;64089;51.478;5.692;2022-11-12T04:39:31;4.60;99.90
42833;DHT22;64089;51.478;5.692;2022-11-12T04:41:57;4.50;99.90
42833;DHT22;64089;51.478;5.692;2022-11-12T04:44:41;4.40;99.90
42833;DHT22;64089;51.478;5.692;2022-11-12T04:47:32;4.40;99.90
42833;DHT22;64089;51.478;5.692;2022-11-12T04:49:58;4.30;99.90
42833;DHT22;64089;51.478;5.692;2022-11-12T04:52:25;4.30;99.90
42833;DHT22;64089;51.478;5.692;2022-11-12T04:54:51;4.40;99.90
42833;DHT22;64089;51.478;5.692;2022-11-12T04:57:17;4.40;99.90
42833;DHT22;64089;51.478;5.692;2022-11-12T04:59:43;4.40;99.90
42833;DHT22;64089;51.478;5.692;2022-11-12T05:02:08;4.40;99.90
42833;DHT22;64089;51.478;5.692;2022-11-12T05:04:34;4.40;99.90
42833;DHT22;64089;51.478;5.692;2022-11-12T05:07:00;4.30;99.90
42833;DHT22;64089;51.478;5.692;2022-11-12T05:09:27;4.30;99.90
42833;DHT22;64089;51.478;5.692;2022-11-12T05:11:54;4.30;99.90
42833;DHT22;64089;51.478;5.692;2022-11-12T05:14:20;4.30;99.90
42833;DHT22;64089;51.478;5.692;2022-11-12T05:16:46;4.20;99.90
42833;DHT22;64089;51.478;5.692;2022-11-12T05:19:12;4.30;99.90
42833;DHT22;64089;51.478;5.692;2022-11-12T05:21:38;4.20;99.90
42833;DHT22;64089;51.478;5.692;2022-11-12T05:24:23;4.30;99.90
42833;DHT22;64089;51.478;5.692;2022-11-12T05:26:49;4.20;99.90
42833;DHT22;64089;51.478;5.692;2022-11-12T05:29:14;4.20;99.90
42833;DHT22;64089;51.478;5.692;2022-11-12T05:31:40;4.20;99.90
42833;DHT22;64089;51.478;5.692;2022-11-12T05:34:06;4.20;99.90
42833;DHT22;64089;51.478;5.692;2022-11-12T05:36:31;4.20;99.90
42833;DHT22;64089;51.478;5.692;2022-11-12T05:38:58;4.30;99.90
42833;DHT22;64089;51.478;5.692;2022-11-12T05:41:24;4.30;99.90
42833;DHT22;64089;51.478;5.692;2022-11-12T05:43:49;4.30;99.90
42833;DHT22;64089;51.478;5.692;2022-11-12T05:46:15;4.30;99.90
42833;DHT22;64089;51.478;5.692;2022-11-12T05:48:41;4.20;99.90
42833;DHT22;64089;51.478;5.692;2022-11-12T05:51:06;4.20;99.90
42833;DHT22;64089;51.478;5.692;2022-11-12T05:53:32;4.20;99.90
42833;DHT22;64089;51.478;5.692;2022-11-12T05:56:01;4.20;99.90
42833;DHT22;64089;51.478;5.692;2022-11-12T05:58:27;4.20;99.90
42833;DHT22;64089;51.478;5.692;2022-11-12T06:00:53;4.20;99.90
42833;DHT22;64089;51.478;5.692;2022-11-12T06:03:18;4.20;99.90
42833;DHT22;64089;51.478;5.692;2022-11-12T06:05:44;4.10;99.90
42833;DHT22;64089;51.478;5.692;2022-11-12T06:08:09;4.10;99.90
42833;DHT22;64089;51.478;5.692;2022-11-12T06:10:35;4.10;99.90
42833;DHT22;64089;51.478;5.692;2022-11-12T06:13:00;4.00;99.90
42833;DHT22;64089;51.478;5.692;2022-11-12T06:15:26;4.00;99.90
42833;DHT22;64089;51.478;5.692;2022-11-12T06:17:53;4.00;99.90
42833;DHT22;64089;51.478;5.692;2022-11-12T06:20:19;4.00;99.90
42833;DHT22;64089;51.478;5.692;2022-11-12T06:22:45;4.00;99.90
42833;DHT22;64089;51.478;5.692;2022-11-12T06:25:10;4.00;99.90
42833;DHT22;64089;51.478;5.692;2022-11-12T06:27:36;4.00;99.90
42833;DHT22;64089;51.478;5.692;2022-11-12T06:30:03;3.90;99.90
42833;DHT22;64089;51.478;5.692;2022-11-12T06:32:29;4.00;99.90
42833;DHT22;64089;51.478;5.692;2022-11-12T06:34:54;4.00;99.90
42833;DHT22;64089;51.478;5.692;2022-11-12T06:37:20;3.90;99.90
42833;DHT22;64089;51.478;5.692;2022-11-12T06:39:46;3.90;99.90
42833;DHT22;64089;51.478;5.692;2022-11-12T06:42:12;3.90;99.90
42833;DHT22;64089;51.478;5.692;2022-11-12T06:44:38;3.90;99.90
42833;DHT22;64089;51.478;5.692;2022-11-12T06:47:03;3.80;99.90
42833;DHT22;64089;51.478;5.692;2022-11-12T06:49:29;3.90;99.90
42833;DHT22;64089;51.478;5.692;2022-11-12T06:51:54;3.80;99.90
42833;DHT22;64089;51.478;5.692;2022-11-12T06:54:20;3.80;99.90
42833;DHT22;64089;51.478;5.692;2022-11-12T06:56:45;3.80;99.90
42833;DHT22;64089;51.478;5.692;2022-11-12T06:59:11;3.80;99.90
42833;DHT22;64089;51.478;5.692;2022-11-12T07:01:36;3.90;99.90
42833;DHT22;64089;51.478;5.692;2022-11-12T07:04:02;4.00;99.90
42833;DHT22;64089;51.478;5.692;2022-11-12T07:06:28;3.90;99.90
42833;DHT22;64089;51.478;5.692;2022-11-12T07:08:54;3.90;99.90
42833;DHT22;64089;51.478;5.692;2022-11-12T07:11:20;3.90;99.90
42833;DHT22;64089;51.478;5.692;2022-11-12T07:13:46;3.90;99.90
42833;DHT22;64089;51.478;5.692;2022-11-12T07:16:12;4.00;99.90
42833;DHT22;64089;51.478;5.692;2022-11-12T07:18:42;4.00;99.90
42833;DHT22;64089;51.478;5.692;2022-11-12T07:21:11;4.10;99.90
42833;DHT22;64089;51.478;5.692;2022-11-12T07:23:37;4.10;99.90
42833;DHT22;64089;51.478;5.692;2022-11-12T07:26:14;4.20;99.90
42833;DHT22;64089;51.478;5.692;2022-11-12T07:28:40;4.30;99.90
42833;DHT22;64089;51.478;5.692;2022-11-12T07:31:08;4.30;99.90
42833;DHT22;64089;51.478;5.692;2022-11-12T07:33:34;4.40;99.90
42833;DHT22;64089;51.478;5.692;2022-11-12T07:38:28;4.50;99.90
42833;DHT22;64089;51.478;5.692;2022-11-12T07:41:20;4.50;99.90
42833;DHT22;64089;51.478;5.692;2022-11-12T07:43:48;4.60;99.90
42833;DHT22;64089;51.478;5.692;2022-11-12T07:46:16;4.70;99.90
42833;DHT22;64089;51.478;5.692;2022-11-12T07:48:42;4.80;99.90
42833;DHT22;64089;51.478;5.692;2022-11-12T07:51:12;4.80;99.90
42833;DHT22;64089;51.478;5.692;2022-11-12T07:53:39;4.90;99.90
42833;DHT22;64089;51.478;5.692;2022-11-12T07:56:04;4.90;99.90
42833;DHT22;64089;51.478;5.692;2022-11-12T07:58:32;4.90;99.90
42833;DHT22;64089;51.478;5.692;2022-11-12T08:01:05;5.00;99.90
42833;DHT22;64089;51.478;5.692;2022-11-12T08:03:31;5.00;99.90
42833;DHT22;64089;51.478;5.692;2022-11-12T08:05:59;5.00;99.90
42833;DHT22;64089;51.478;5.692;2022-11-12T08:08:25;5.10;99.90
42833;DHT22;64089;51.478;5.692;2022-11-12T08:10:57;5.10;99.90
42833;DHT22;64089;51.478;5.692;2022-11-12T08:13:24;5.20;99.90
42833;DHT22;64089;51.478;5.692;2022-11-12T08:15:50;5.30;99.90
42833;DHT22;64089;51.478;5.692;2022-11-12T08:18:16;5.30;99.90
42833;DHT22;64089;51.478;5.692;2022-11-12T08:20:41;5.50;99.90
42833;DHT22;64089;51.478;5.692;2022-11-12T08:23:07;5.50;99.90
42833;DHT22;64089;51.478;5.692;2022-11-12T08:25:34;5.70;99.90
42833;DHT22;64089;51.478;5.692;2022-11-12T08:28:00;5.70;99.90
42833;DHT22;64089;51.478;5.692;2022-11-12T08:30:26;5.80;99.90
42833;DHT22;64089;51.478;5.692;2022-11-12T08:33:00;5.90;99.90
42833;DHT22;64089;51.478;5.692;2022-11-12T08:35:27;6.00;99.90
42833;DHT22;64089;51.478;5.692;2022-11-12T08:38:02;6.10;99.90
42833;DHT22;64089;51.478;5.692;2022-11-12T08:40:29;6.10;99.90
42833;DHT22;64089;51.478;5.692;2022-11-12T08:43:00;6.20;99.90
42833;DHT22;64089;51.478;5.692;2022-11-12T08:45:27;6.30;99.90
42833;DHT22;64089;51.478;5.692;2022-11-12T08:47:57;6.40;99.90
42833;DHT22;64089;51.478;5.692;2022-11-12T08:50:22;6.40;99.90
42833;DHT22;64089;51.478;5.692;2022-11-12T08:52:48;6.50;99.90
42833;DHT22;64089;51.478;5.692;2022-11-12T08:55:14;6.50;99.90
42833;DHT22;64089;51.478;5.692;2022-11-12T08:57:40;6.60;99.90
42833;DHT22;64089;51.478;5.692;2022-11-12T09:00:11;6.70;99.90
42833;DHT22;64089;51.478;5.692;2022-11-12T09:02:37;6.80;99.90
42833;DHT22;64089;51.478;5.692;2022-11-12T09:05:03;6.90;99.90
42833;DHT22;64089;51.478;5.692;2022-11-12T09:07:30;7.00;99.90
42833;DHT22;64089;51.478;5.692;2022-11-12T09:09:55;7.10;99.90
42833;DHT22;64089;51.478;5.692;2022-11-12T09:12:21;7.20;99.90
42833;DHT22;64089;51.478;5.692;2022-11-12T09:14:46;7.50;99.90
42833;DHT22;64089;51.478;5.692;2022-11-12T09:17:13;7.60;99.90
42833;DHT22;64089;51.478;5.692;2022-11-12T09:19:38;7.80;99.90
42833;DHT22;64089;51.478;5.692;2022-11-12T09:22:04;7.90;99.90
42833;DHT22;64089;51.478;5.692;2022-11-12T09:24:30;8.00;99.90
42833;DHT22;64089;51.478;5.692;2022-11-12T09:26:55;8.00;99.90
42833;DHT22;64089;51.478;5.692;2022-11-12T09:29:21;8.10;99.90
42833;DHT22;64089;51.478;5.692;2022-11-12T09:31:46;8.20;99.90
42833;DHT22;64089;51.478;5.692;2022-11-12T09:34:12;8.30;99.90
42833;DHT22;64089;51.478;5.692;2022-11-12T09:36:38;8.40;99.90
42833;DHT22;64089;51.478;5.692;2022-11-12T09:39:03;8.40;99.90
42833;DHT22;64089;51.478;5.692;2022-11-12T09:41:39;8.50;99.90
42833;DHT22;64089;51.478;5.692;2022-11-12T09:44:14;8.50;99.90
42833;DHT22;64089;51.478;5.692;2022-11-12T09:46:58;8.60;99.90
42833;DHT22;64089;51.478;5.692;2022-11-12T09:49:35;8.70;99.90
42833;DHT22;64089;51.478;5.692;2022-11-12T09:52:21;8.70;99.90
42833;DHT22;64089;51.478;5.692;2022-11-12T09:54:54;8.80;99.90
42833;DHT22;64089;51.478;5.692;2022-11-12T09:57:25;8.90;99.90
42833;DHT22;64089;51.478;5.692;2022-11-12T09:59:50;8.90;99.90
42833;DHT22;64089;51.478;5.692;2022-11-12T10:02:26;9.10;99.90
42833;DHT22;64089;51.478;5.692;2022-11-12T10:07:59;9.30;99.90
42833;DHT22;64089;51.478;5.692;2022-11-12T10:10:35;9.50;99.90
42833;DHT22;64089;51.478;5.692;2022-11-12T10:22:34;9.90;99.90
42833;DHT22;64089;51.478;5.692;2022-11-12T10:24:41;9.90;99.90
42833;DHT22;64089;51.478;5.692;2022-11-12T10:27:21;10.10;99.90
42833;DHT22;64089;51.478;5.692;2022-11-12T10:30:02;10.20;99.90
42833;DHT22;64089;51.478;5.692;2022-11-12T10:32:28;10.30;99.90
42833;DHT22;64089;51.478;5.692;2022-11-12T10:34:54;10.40;99.90
42833;DHT22;64089;51.478;5.692;2022-11-12T10:37:24;10.60;99.90
42833;DHT22;64089;51.478;5.692;2022-11-12T10:39:52;10.70;99.90
42833;DHT22;64089;51.478;5.692;2022-11-12T10:42:20;10.80;99.90
42833;DHT22;64089;51.478;5.692;2022-11-12T10:44:46;10.90;99.90
42833;DHT22;64089;51.478;5.692;2022-11-12T10:47:20;11.00;99.90
42833;DHT22;64089;51.478;5.692;2022-11-12T10:52:35;11.20;99.90
42833;DHT22;64089;51.478;5.692;2022-11-12T10:55:05;11.40;99.90
42833;DHT22;64089;51.478;5.692;2022-11-12T10:57:31;11.50;99.90
42833;DHT22;64089;51.478;5.692;2022-11-12T11:00:18;11.60;99.90
42833;DHT22;64089;51.478;5.692;2022-11-12T11:02:52;11.60;99.90
42833;DHT22;64089;51.478;5.692;2022-11-12T11:05:37;11.60;99.90
42833;DHT22;64089;51.478;5.692;2022-11-12T11:08:03;11.70;99.90
42833;DHT22;64089;51.478;5.692;2022-11-12T11:10:35;11.80;99.90
42833;DHT22;64089;51.478;5.692;2022-11-12T11:13:27;11.90;99.90
42833;DHT22;64089;51.478;5.692;2022-11-12T11:16:06;12.00;99.90
42833;DHT22;64089;51.478;5.692;2022-11-12T11:18:37;12.00;99.90
42833;DHT22;64089;51.478;5.692;2022-11-12T11:27:03;12.40;99.90
42833;DHT22;64089;51.478;5.692;2022-11-12T11:47:14;12.70;99.90
42833;DHT22;64089;51.478;5.692;2022-11-12T11:49:57;12.70;99.90
42833;DHT22;64089;51.478;5.692;2022-11-12T11:55:47;12.80;99.90
42833;DHT22;64089;51.478;5.692;2022-11-12T12:04:23;13.20;99.90
42833;DHT22;64089;51.478;5.692;2022-11-12T12:09:56;13.30;99.90
42833;DHT22;64089;51.478;5.692;2022-11-12T12:17:47;13.40;99.90
42833;DHT22;64089;51.478;5.692;2022-11-12T12:20:22;13.40;99.90
42833;DHT22;64089;51.478;5.692;2022-11-12T12:25:45;13.40;99.90
42833;DHT22;64089;51.478;5.692;2022-11-12T12:28:26;13.50;99.90
42833;DHT22;64089;51.478;5.692;2022-11-12T12:30:57;13.60;99.90
42833;DHT22;64089;51.478;5.692;2022-11-12T12:36:20;13.50;99.90
42833;DHT22;64089;51.478;5.692;2022-11-12T12:38:52;13.50;99.90
42833;DHT22;64089;51.478;5.692;2022-11-12T12:41:36;13.70;99.90
42833;DHT22;64089;51.478;5.692;2022-11-12T12:44:07;13.70;99.90
42833;DHT22;64089;51.478;5.692;2022-11-12T12:46:55;13.80;99.90
42833;DHT22;64089;51.478;5.692;2022-11-12T12:49:31;13.90;99.90
42833;DHT22;64089;51.478;5.692;2022-11-12T12:51:58;14.00;99.90
42833;DHT22;64089;51.478;5.692;2022-11-12T12:57:28;14.10;99.90
42833;DHT22;64089;51.478;5.692;2022-11-12T13:00:31;14.10;99.90
42833;DHT22;64089;51.478;5.692;2022-11-12T13:02:57;14.10;99.90
42833;DHT22;64089;51.478;5.692;2022-11-12T13:05:29;14.00;99.90
42833;DHT22;64089;51.478;5.692;2022-11-12T13:08:01;14.10;99.90
42833;DHT22;64089;51.478;5.692;2022-11-12T13:13:23;14.00;99.90
42833;DHT22;64089;51.478;5.692;2022-11-12T13:15:55;14.10;99.90
42833;DHT22;64089;51.478;5.692;2022-11-12T13:21:17;14.30;99.90
42833;DHT22;64089;51.478;5.692;2022-11-12T13:23:57;14.30;99.90
42833;DHT22;64089;51.478;5.692;2022-11-12T13:26:55;14.30;99.90
42833;DHT22;64089;51.478;5.692;2022-11-12T13:29:38;14.40;99.90
42833;DHT22;64089;51.478;5.692;2022-11-12T13:37:54;14.60;99.90
42833;DHT22;64089;51.478;5.692;2022-11-12T13:43:39;14.60;99.90
